sensor_id;sensor_type;location;lat;lon;timestamp;P1;durP1;ratioP1;P2;durP2;ratioP2
10005;SDS011;5042;42.626;23.382;2023-12-07T00:01:49;34.70;;;23.53;;
10005;SDS011;5042;42.626;23.382;2023-12-07T00:04:16;35.63;;;25.23;;
10005;SDS011;5042;42.626;23.382;2023-12-07T00:06:43;37.17;;;24.93;;
10005;SDS011;5042;42.626;23.382;2023-12-07T00:09:10;41.37;;;25.47;;
10005;SDS011;5042;42.626;23.382;2023-12-07T00:11:37;41.20;;;25.53;;
10005;SDS011;5042;42.626;23.382;2023-12-07T00:14:05;36.83;;;24.73;;
10005;SDS011;5042;42.626;23.382;2023-12-07T00:16:32;40.10;;;26.73;;
10005;SDS011;5042;42.626;23.382;2023-12-07T00:18:59;38.23;;;26.17;;
10005;SDS011;5042;42.626;23.382;2023-12-07T00:21:26;40.57;;;26.20;;
10005;SDS011;5042;42.626;23.382;2023-12-07T00:23:53;38.53;;;26.43;;
10005;SDS011;5042;42.626;23.382;2023-12-07T00:26:19;39.87;;;26.40;;
10005;SDS011;5042;42.626;23.382;2023-12-07T00:28:46;43.70;;;27.30;;
10005;SDS011;5042;42.626;23.382;2023-12-07T00:31:14;41.53;;;25.93;;
10005;SDS011;5042;42.626;23.382;2023-12-07T00:33:41;43.30;;;27.00;;
10005;SDS011;5042;42.626;23.382;2023-12-07T00:36:10;44.53;;;28.03;;
10005;SDS011;5042;42.626;23.382;2023-12-07T00:38:37;43.20;;;27.53;;
10005;SDS011;5042;42.626;23.382;2023-12-07T00:41:04;42.60;;;27.10;;
10005;SDS011;5042;42.626;23.382;2023-12-07T00:43:31;40.17;;;26.67;;
10005;SDS011;5042;42.626;23.382;2023-12-07T00:45:59;42.73;;;26.33;;
10005;SDS011;5042;42.626;23.382;2023-12-07T00:48:28;42.93;;;27.50;;
10005;SDS011;5042;42.626;23.382;2023-12-07T00:50:55;45.77;;;28.87;;
10005;SDS011;5042;42.626;23.382;2023-12-07T00:53:22;45.17;;;28.30;;
10005;SDS011;5042;42.626;23.382;2023-12-07T00:55:49;48.33;;;28.77;;
10005;SDS011;5042;42.626;23.382;2023-12-07T00:58:16;43.57;;;27.63;;
10005;SDS011;5042;42.626;23.382;2023-12-07T01:00:43;41.97;;;26.80;;
10005;SDS011;5042;42.626;23.382;2023-12-07T01:03:09;46.13;;;27.03;;
10005;SDS011;5042;42.626;23.382;2023-12-07T01:05:38;40.13;;;26.93;;
10005;SDS011;5042;42.626;23.382;2023-12-07T01:08:05;41.67;;;26.97;;
10005;SDS011;5042;42.626;23.382;2023-12-07T01:10:31;41.60;;;26.40;;
10005;SDS011;5042;42.626;23.382;2023-12-07T01:12:59;46.60;;;26.53;;
10005;SDS011;5042;42.626;23.382;2023-12-07T01:15:26;43.30;;;26.77;;
10005;SDS011;5042;42.626;23.382;2023-12-07T01:17:53;43.60;;;27.30;;
10005;SDS011;5042;42.626;23.382;2023-12-07T01:20:20;40.77;;;25.77;;
10005;SDS011;5042;42.626;23.382;2023-12-07T01:22:48;38.43;;;25.13;;
10005;SDS011;5042;42.626;23.382;2023-12-07T01:25:15;42.73;;;26.63;;
10005;SDS011;5042;42.626;23.382;2023-12-07T01:27:46;35.67;;;23.60;;
10005;SDS011;5042;42.626;23.382;2023-12-07T01:30:13;36.20;;;24.43;;
10005;SDS011;5042;42.626;23.382;2023-12-07T01:32:41;40.73;;;26.67;;
10005;SDS011;5042;42.626;23.382;2023-12-07T01:35:08;40.03;;;26.13;;
10005;SDS011;5042;42.626;23.382;2023-12-07T01:37:35;41.70;;;27.00;;
10005;SDS011;5042;42.626;23.382;2023-12-07T01:40:04;44.03;;;26.10;;
10005;SDS011;5042;42.626;23.382;2023-12-07T01:42:35;43.90;;;26.17;;
10005;SDS011;5042;42.626;23.382;2023-12-07T01:45:02;40.23;;;25.93;;
10005;SDS011;5042;42.626;23.382;2023-12-07T01:47:29;40.33;;;26.27;;
10005;SDS011;5042;42.626;23.382;2023-12-07T01:49:56;41.10;;;25.93;;
10005;SDS011;5042;42.626;23.382;2023-12-07T01:52:24;36.73;;;24.27;;
10005;SDS011;5042;42.626;23.382;2023-12-07T01:54:53;38.53;;;24.27;;
10005;SDS011;5042;42.626;23.382;2023-12-07T01:57:21;34.33;;;23.67;;
10005;SDS011;5042;42.626;23.382;2023-12-07T01:59:48;37.60;;;25.27;;
10005;SDS011;5042;42.626;23.382;2023-12-07T02:02:16;39.87;;;24.10;;
10005;SDS011;5042;42.626;23.382;2023-12-07T02:04:43;34.77;;;23.70;;
10005;SDS011;5042;42.626;23.382;2023-12-07T02:07:10;39.17;;;25.60;;
10005;SDS011;5042;42.626;23.382;2023-12-07T02:09:38;40.97;;;26.27;;
10005;SDS011;5042;42.626;23.382;2023-12-07T02:12:05;42.43;;;27.17;;
10005;SDS011;5042;42.626;23.382;2023-12-07T02:14:33;43.37;;;27.57;;
10005;SDS011;5042;42.626;23.382;2023-12-07T02:17:01;43.47;;;27.23;;
10005;SDS011;5042;42.626;23.382;2023-12-07T02:19:44;44.67;;;28.17;;
10005;SDS011;5042;42.626;23.382;2023-12-07T02:22:21;41.97;;;27.33;;
10005;SDS011;5042;42.626;23.382;2023-12-07T02:24:57;42.67;;;26.23;;
10005;SDS011;5042;42.626;23.382;2023-12-07T02:27:35;39.97;;;26.43;;
10005;SDS011;5042;42.626;23.382;2023-12-07T02:30:03;41.93;;;26.47;;
10005;SDS011;5042;42.626;23.382;2023-12-07T02:32:31;40.87;;;25.87;;
10005;SDS011;5042;42.626;23.382;2023-12-07T02:34:59;39.67;;;25.67;;
10005;SDS011;5042;42.626;23.382;2023-12-07T02:37:27;44.67;;;27.03;;
10005;SDS011;5042;42.626;23.382;2023-12-07T02:39:58;41.57;;;26.63;;
10005;SDS011;5042;42.626;23.382;2023-12-07T02:42:25;38.87;;;25.23;;
10005;SDS011;5042;42.626;23.382;2023-12-07T02:44:54;38.27;;;25.10;;
10005;SDS011;5042;42.626;23.382;2023-12-07T02:47:21;36.63;;;24.90;;
10005;SDS011;5042;42.626;23.382;2023-12-07T02:49:48;39.93;;;25.57;;
10005;SDS011;5042;42.626;23.382;2023-12-07T02:52:15;36.80;;;24.63;;
10005;SDS011;5042;42.626;23.382;2023-12-07T02:54:42;39.73;;;25.80;;
10005;SDS011;5042;42.626;23.382;2023-12-07T02:57:09;43.47;;;27.67;;
10005;SDS011;5042;42.626;23.382;2023-12-07T02:59:36;41.57;;;26.80;;
10005;SDS011;5042;42.626;23.382;2023-12-07T03:02:04;40.43;;;25.77;;
10005;SDS011;5042;42.626;23.382;2023-12-07T03:04:31;37.83;;;25.03;;
10005;SDS011;5042;42.626;23.382;2023-12-07T03:06:58;37.33;;;24.90;;
10005;SDS011;5042;42.626;23.382;2023-12-07T03:09:25;39.13;;;25.63;;
10005;SDS011;5042;42.626;23.382;2023-12-07T03:11:52;42.07;;;25.63;;
10005;SDS011;5042;42.626;23.382;2023-12-07T03:14:19;42.00;;;26.07;;
10005;SDS011;5042;42.626;23.382;2023-12-07T03:16:46;37.53;;;24.90;;
10005;SDS011;5042;42.626;23.382;2023-12-07T03:19:14;39.97;;;25.80;;
10005;SDS011;5042;42.626;23.382;2023-12-07T03:21:41;40.93;;;26.67;;
10005;SDS011;5042;42.626;23.382;2023-12-07T03:24:09;39.43;;;26.00;;
10005;SDS011;5042;42.626;23.382;2023-12-07T03:26:36;40.07;;;26.23;;
10005;SDS011;5042;42.626;23.382;2023-12-07T03:29:03;37.03;;;25.73;;
10005;SDS011;5042;42.626;23.382;2023-12-07T03:31:30;38.60;;;24.97;;
10005;SDS011;5042;42.626;23.382;2023-12-07T03:33:57;37.27;;;25.20;;
10005;SDS011;5042;42.626;23.382;2023-12-07T03:36:27;40.30;;;24.27;;
10005;SDS011;5042;42.626;23.382;2023-12-07T03:38:54;37.23;;;25.23;;
10005;SDS011;5042;42.626;23.382;2023-12-07T03:41:39;38.87;;;26.03;;
10005;SDS011;5042;42.626;23.382;2023-12-07T03:44:06;41.37;;;27.03;;
10005;SDS011;5042;42.626;23.382;2023-12-07T03:46:32;41.73;;;27.37;;
10005;SDS011;5042;42.626;23.382;2023-12-07T03:48:59;39.53;;;26.20;;
10005;SDS011;5042;42.626;23.382;2023-12-07T03:51:28;39.67;;;26.67;;
10005;SDS011;5042;42.626;23.382;2023-12-07T03:53:55;40.07;;;25.03;;
10005;SDS011;5042;42.626;23.382;2023-12-07T03:56:22;40.53;;;26.57;;
10005;SDS011;5042;42.626;23.382;2023-12-07T03:58:50;39.93;;;25.03;;
10005;SDS011;5042;42.626;23.382;2023-12-07T04:01:17;39.43;;;24.23;;
10005;SDS011;5042;42.626;23.382;2023-12-07T04:03:47;39.60;;;25.10;;
10005;SDS011;5042;42.626;23.382;2023-12-07T04:06:14;34.90;;;23.57;;
10005;SDS011;5042;42.626;23.382;2023-12-07T04:08:43;36.97;;;24.30;;
10005;SDS011;5042;42.626;23.382;2023-12-07T04:11:10;36.33;;;24.40;;
10005;SDS011;5042;42.626;23.382;2023-12-07T04:13:37;36.50;;;23.70;;
10005;SDS011;5042;42.626;23.382;2023-12-07T04:16:04;35.10;;;24.10;;
10005;SDS011;5042;42.626;23.382;2023-12-07T04:18:32;36.03;;;24.27;;
10005;SDS011;5042;42.626;23.382;2023-12-07T04:20:59;35.30;;;22.47;;
10005;SDS011;5042;42.626;23.382;2023-12-07T04:23:25;33.87;;;22.73;;
10005;SDS011;5042;42.626;23.382;2023-12-07T04:25:54;33.50;;;22.27;;
10005;SDS011;5042;42.626;23.382;2023-12-07T04:28:21;32.27;;;22.30;;
10005;SDS011;5042;42.626;23.382;2023-12-07T04:30:48;31.57;;;21.33;;
10005;SDS011;5042;42.626;23.382;2023-12-07T04:33:15;34.17;;;21.57;;
10005;SDS011;5042;42.626;23.382;2023-12-07T04:35:41;31.23;;;21.87;;
10005;SDS011;5042;42.626;23.382;2023-12-07T04:38:08;32.60;;;21.90;;
10005;SDS011;5042;42.626;23.382;2023-12-07T04:40:35;32.83;;;21.80;;
10005;SDS011;5042;42.626;23.382;2023-12-07T04:43:04;31.87;;;21.67;;
10005;SDS011;5042;42.626;23.382;2023-12-07T04:45:31;32.93;;;21.33;;
10005;SDS011;5042;42.626;23.382;2023-12-07T04:47:57;31.07;;;22.20;;
10005;SDS011;5042;42.626;23.382;2023-12-07T04:50:25;34.47;;;22.53;;
10005;SDS011;5042;42.626;23.382;2023-12-07T04:52:52;34.63;;;22.53;;
10005;SDS011;5042;42.626;23.382;2023-12-07T04:55:19;38.13;;;23.37;;
10005;SDS011;5042;42.626;23.382;2023-12-07T04:57:46;34.20;;;23.53;;
10005;SDS011;5042;42.626;23.382;2023-12-07T05:00:15;30.10;;;21.80;;
10005;SDS011;5042;42.626;23.382;2023-12-07T05:02:42;34.73;;;22.77;;
10005;SDS011;5042;42.626;23.382;2023-12-07T05:05:09;35.87;;;23.60;;
10005;SDS011;5042;42.626;23.382;2023-12-07T05:07:36;34.60;;;23.40;;
10005;SDS011;5042;42.626;23.382;2023-12-07T05:10:04;33.80;;;23.73;;
10005;SDS011;5042;42.626;23.382;2023-12-07T05:12:31;39.47;;;24.07;;
10005;SDS011;5042;42.626;23.382;2023-12-07T05:14:58;34.83;;;22.70;;
10005;SDS011;5042;42.626;23.382;2023-12-07T05:17:26;32.30;;;22.03;;
10005;SDS011;5042;42.626;23.382;2023-12-07T05:19:53;34.63;;;22.83;;
10005;SDS011;5042;42.626;23.382;2023-12-07T05:22:20;34.73;;;22.57;;
10005;SDS011;5042;42.626;23.382;2023-12-07T05:24:48;34.20;;;23.00;;
10005;SDS011;5042;42.626;23.382;2023-12-07T05:27:15;34.17;;;23.30;;
10005;SDS011;5042;42.626;23.382;2023-12-07T05:29:42;30.47;;;21.63;;
10005;SDS011;5042;42.626;23.382;2023-12-07T05:32:09;30.77;;;21.13;;
10005;SDS011;5042;42.626;23.382;2023-12-07T05:34:37;32.73;;;22.73;;
10005;SDS011;5042;42.626;23.382;2023-12-07T05:37:04;35.90;;;26.33;;
10005;SDS011;5042;42.626;23.382;2023-12-07T05:39:31;28.60;;;20.87;;
10005;SDS011;5042;42.626;23.382;2023-12-07T05:41:58;31.33;;;21.20;;
10005;SDS011;5042;42.626;23.382;2023-12-07T05:44:25;32.77;;;22.07;;
10005;SDS011;5042;42.626;23.382;2023-12-07T05:46:52;31.77;;;21.73;;
10005;SDS011;5042;42.626;23.382;2023-12-07T05:49:19;31.83;;;21.27;;
10005;SDS011;5042;42.626;23.382;2023-12-07T05:51:49;29.70;;;20.43;;
10005;SDS011;5042;42.626;23.382;2023-12-07T05:54:15;31.60;;;21.73;;
10005;SDS011;5042;42.626;23.382;2023-12-07T05:56:42;29.60;;;20.00;;
10005;SDS011;5042;42.626;23.382;2023-12-07T05:59:09;29.93;;;21.43;;
10005;SDS011;5042;42.626;23.382;2023-12-07T06:01:36;29.33;;;19.77;;
10005;SDS011;5042;42.626;23.382;2023-12-07T06:04:03;29.53;;;21.13;;
10005;SDS011;5042;42.626;23.382;2023-12-07T06:06:30;28.23;;;19.73;;
10005;SDS011;5042;42.626;23.382;2023-12-07T06:08:58;27.20;;;19.33;;
10005;SDS011;5042;42.626;23.382;2023-12-07T06:11:25;26.97;;;20.00;;
10005;SDS011;5042;42.626;23.382;2023-12-07T06:13:52;30.83;;;21.53;;
10005;SDS011;5042;42.626;23.382;2023-12-07T06:16:20;29.00;;;20.33;;
10005;SDS011;5042;42.626;23.382;2023-12-07T06:18:47;31.53;;;20.47;;
10005;SDS011;5042;42.626;23.382;2023-12-07T06:21:13;29.93;;;21.30;;
10005;SDS011;5042;42.626;23.382;2023-12-07T06:23:40;27.83;;;20.30;;
10005;SDS011;5042;42.626;23.382;2023-12-07T06:26:09;31.10;;;21.20;;
10005;SDS011;5042;42.626;23.382;2023-12-07T06:28:36;32.20;;;21.23;;
10005;SDS011;5042;42.626;23.382;2023-12-07T06:31:06;30.97;;;21.47;;
10005;SDS011;5042;42.626;23.382;2023-12-07T06:33:33;28.20;;;20.53;;
10005;SDS011;5042;42.626;23.382;2023-12-07T06:36:01;31.17;;;21.63;;
10005;SDS011;5042;42.626;23.382;2023-12-07T06:38:29;32.60;;;21.80;;
10005;SDS011;5042;42.626;23.382;2023-12-07T06:40:56;33.53;;;22.50;;
10005;SDS011;5042;42.626;23.382;2023-12-07T06:43:24;32.40;;;22.07;;
10005;SDS011;5042;42.626;23.382;2023-12-07T06:45:51;29.77;;;21.97;;
10005;SDS011;5042;42.626;23.382;2023-12-07T06:48:18;30.43;;;21.30;;
10005;SDS011;5042;42.626;23.382;2023-12-07T06:50:45;27.80;;;19.83;;
10005;SDS011;5042;42.626;23.382;2023-12-07T06:53:13;29.40;;;20.83;;
10005;SDS011;5042;42.626;23.382;2023-12-07T06:55:41;24.60;;;19.00;;
10005;SDS011;5042;42.626;23.382;2023-12-07T06:58:08;26.57;;;20.37;;
10005;SDS011;5042;42.626;23.382;2023-12-07T07:00:36;28.17;;;20.47;;
10005;SDS011;5042;42.626;23.382;2023-12-07T07:03:03;25.40;;;18.83;;
10005;SDS011;5042;42.626;23.382;2023-12-07T07:05:31;27.90;;;20.53;;
10005;SDS011;5042;42.626;23.382;2023-12-07T07:07:58;24.33;;;17.27;;
10005;SDS011;5042;42.626;23.382;2023-12-07T07:10:25;24.47;;;17.53;;
10005;SDS011;5042;42.626;23.382;2023-12-07T07:12:52;25.97;;;17.33;;
10005;SDS011;5042;42.626;23.382;2023-12-07T07:15:18;24.63;;;16.97;;
10005;SDS011;5042;42.626;23.382;2023-12-07T07:17:47;22.87;;;16.00;;
10005;SDS011;5042;42.626;23.382;2023-12-07T07:22:59;23.17;;;17.07;;
10005;SDS011;5042;42.626;23.382;2023-12-07T07:25:26;25.83;;;18.33;;
10005;SDS011;5042;42.626;23.382;2023-12-07T07:27:53;26.57;;;18.03;;
10005;SDS011;5042;42.626;23.382;2023-12-07T07:30:20;28.23;;;17.10;;
10005;SDS011;5042;42.626;23.382;2023-12-07T07:32:48;25.03;;;17.27;;
10005;SDS011;5042;42.626;23.382;2023-12-07T07:35:16;24.70;;;17.37;;
10005;SDS011;5042;42.626;23.382;2023-12-07T07:37:43;24.43;;;17.63;;
10005;SDS011;5042;42.626;23.382;2023-12-07T07:40:10;25.47;;;16.57;;
10005;SDS011;5042;42.626;23.382;2023-12-07T07:42:37;27.20;;;17.10;;
10005;SDS011;5042;42.626;23.382;2023-12-07T07:45:06;25.53;;;17.77;;
10005;SDS011;5042;42.626;23.382;2023-12-07T07:47:33;26.93;;;17.37;;
10005;SDS011;5042;42.626;23.382;2023-12-07T07:50:02;25.57;;;17.27;;
10005;SDS011;5042;42.626;23.382;2023-12-07T07:52:31;22.37;;;16.73;;
10005;SDS011;5042;42.626;23.382;2023-12-07T07:54:59;24.50;;;17.47;;
10005;SDS011;5042;42.626;23.382;2023-12-07T07:57:26;23.60;;;16.47;;
10005;SDS011;5042;42.626;23.382;2023-12-07T07:59:53;24.57;;;17.37;;
10005;SDS011;5042;42.626;23.382;2023-12-07T08:02:20;22.40;;;16.37;;
10005;SDS011;5042;42.626;23.382;2023-12-07T08:04:47;20.13;;;15.47;;
10005;SDS011;5042;42.626;23.382;2023-12-07T08:07:15;25.50;;;17.63;;
10005;SDS011;5042;42.626;23.382;2023-12-07T08:09:42;26.10;;;18.70;;
10005;SDS011;5042;42.626;23.382;2023-12-07T08:12:09;24.93;;;18.57;;
10005;SDS011;5042;42.626;23.382;2023-12-07T08:14:36;25.40;;;18.50;;
10005;SDS011;5042;42.626;23.382;2023-12-07T08:17:03;26.23;;;17.93;;
10005;SDS011;5042;42.626;23.382;2023-12-07T08:19:30;28.03;;;17.87;;
10005;SDS011;5042;42.626;23.382;2023-12-07T08:21:57;24.50;;;17.87;;
10005;SDS011;5042;42.626;23.382;2023-12-07T08:24:26;21.47;;;15.77;;
10005;SDS011;5042;42.626;23.382;2023-12-07T08:26:52;21.37;;;13.33;;
10005;SDS011;5042;42.626;23.382;2023-12-07T08:29:19;19.83;;;14.00;;
10005;SDS011;5042;42.626;23.382;2023-12-07T08:31:46;24.53;;;14.67;;
10005;SDS011;5042;42.626;23.382;2023-12-07T08:34:13;17.83;;;12.70;;
10005;SDS011;5042;42.626;23.382;2023-12-07T08:36:40;17.57;;;12.30;;
10005;SDS011;5042;42.626;23.382;2023-12-07T08:39:07;16.93;;;12.30;;
10005;SDS011;5042;42.626;23.382;2023-12-07T08:41:36;16.23;;;11.37;;
10005;SDS011;5042;42.626;23.382;2023-12-07T08:44:03;16.00;;;11.53;;
10005;SDS011;5042;42.626;23.382;2023-12-07T08:46:30;15.23;;;11.47;;
10005;SDS011;5042;42.626;23.382;2023-12-07T08:48:57;14.70;;;10.43;;
10005;SDS011;5042;42.626;23.382;2023-12-07T08:51:24;11.80;;;9.70;;
10005;SDS011;5042;42.626;23.382;2023-12-07T08:53:51;14.43;;;9.77;;
10005;SDS011;5042;42.626;23.382;2023-12-07T08:56:20;11.40;;;9.40;;
10005;SDS011;5042;42.626;23.382;2023-12-07T08:58:48;10.57;;;8.70;;
10005;SDS011;5042;42.626;23.382;2023-12-07T09:01:16;11.03;;;8.77;;
10005;SDS011;5042;42.626;23.382;2023-12-07T09:03:42;9.03;;;7.57;;
10005;SDS011;5042;42.626;23.382;2023-12-07T09:06:09;8.57;;;7.20;;
10005;SDS011;5042;42.626;23.382;2023-12-07T09:08:36;7.70;;;6.87;;
10005;SDS011;5042;42.626;23.382;2023-12-07T09:11:03;7.00;;;6.30;;
10005;SDS011;5042;42.626;23.382;2023-12-07T09:13:30;7.13;;;6.33;;
10005;SDS011;5042;42.626;23.382;2023-12-07T09:15:58;8.83;;;6.40;;
10005;SDS011;5042;42.626;23.382;2023-12-07T09:18:25;7.30;;;6.50;;
10005;SDS011;5042;42.626;23.382;2023-12-07T09:20:52;6.07;;;5.47;;
10005;SDS011;5042;42.626;23.382;2023-12-07T09:23:19;6.40;;;5.80;;
10005;SDS011;5042;42.626;23.382;2023-12-07T09:25:46;7.27;;;5.50;;
10005;SDS011;5042;42.626;23.382;2023-12-07T09:28:12;8.07;;;5.73;;
10005;SDS011;5042;42.626;23.382;2023-12-07T09:30:39;6.77;;;5.57;;
10005;SDS011;5042;42.626;23.382;2023-12-07T09:33:08;6.13;;;5.53;;
10005;SDS011;5042;42.626;23.382;2023-12-07T09:35:35;7.70;;;5.07;;
10005;SDS011;5042;42.626;23.382;2023-12-07T09:38:01;6.67;;;5.57;;
10005;SDS011;5042;42.626;23.382;2023-12-07T09:40:29;7.73;;;5.93;;
10005;SDS011;5042;42.626;23.382;2023-12-07T09:42:56;6.53;;;5.60;;
10005;SDS011;5042;42.626;23.382;2023-12-07T09:45:23;4.70;;;4.30;;
10005;SDS011;5042;42.626;23.382;2023-12-07T09:47:51;5.13;;;4.57;;
10005;SDS011;5042;42.626;23.382;2023-12-07T09:50:20;4.83;;;4.33;;
10005;SDS011;5042;42.626;23.382;2023-12-07T09:52:49;4.77;;;4.30;;
10005;SDS011;5042;42.626;23.382;2023-12-07T09:55:17;4.17;;;3.87;;
10005;SDS011;5042;42.626;23.382;2023-12-07T09:57:45;4.57;;;4.20;;
10005;SDS011;5042;42.626;23.382;2023-12-07T10:00:12;3.90;;;3.60;;
10005;SDS011;5042;42.626;23.382;2023-12-07T10:02:40;3.63;;;3.33;;
10005;SDS011;5042;42.626;23.382;2023-12-07T10:05:09;3.60;;;3.30;;
10005;SDS011;5042;42.626;23.382;2023-12-07T10:07:40;3.33;;;3.03;;
10005;SDS011;5042;42.626;23.382;2023-12-07T10:10:09;3.13;;;2.90;;
10005;SDS011;5042;42.626;23.382;2023-12-07T10:12:43;3.20;;;3.00;;
10005;SDS011;5042;42.626;23.382;2023-12-07T10:15:13;3.40;;;3.10;;
10005;SDS011;5042;42.626;23.382;2023-12-07T10:17:45;3.10;;;2.80;;
10005;SDS011;5042;42.626;23.382;2023-12-07T10:20:14;2.80;;;2.60;;
10005;SDS011;5042;42.626;23.382;2023-12-07T10:22:43;3.03;;;2.60;;
10005;SDS011;5042;42.626;23.382;2023-12-07T10:25:11;3.00;;;2.80;;
10005;SDS011;5042;42.626;23.382;2023-12-07T10:27:40;3.10;;;2.90;;
10005;SDS011;5042;42.626;23.382;2023-12-07T10:30:09;2.83;;;2.63;;
10005;SDS011;5042;42.626;23.382;2023-12-07T10:32:37;3.10;;;2.80;;
10005;SDS011;5042;42.626;23.382;2023-12-07T10:35:08;2.80;;;2.60;;
10005;SDS011;5042;42.626;23.382;2023-12-07T10:37:36;2.53;;;2.33;;
10005;SDS011;5042;42.626;23.382;2023-12-07T10:40:05;2.57;;;2.37;;
10005;SDS011;5042;42.626;23.382;2023-12-07T10:42:33;2.77;;;2.57;;
10005;SDS011;5042;42.626;23.382;2023-12-07T10:45:04;2.40;;;2.20;;
10005;SDS011;5042;42.626;23.382;2023-12-07T10:47:33;2.30;;;2.20;;
10005;SDS011;5042;42.626;23.382;2023-12-07T10:50:02;2.13;;;1.93;;
10005;SDS011;5042;42.626;23.382;2023-12-07T10:52:36;2.00;;;1.90;;
10005;SDS011;5042;42.626;23.382;2023-12-07T10:55:05;2.17;;;2.07;;
10005;SDS011;5042;42.626;23.382;2023-12-07T10:57:39;6.10;;;4.37;;
10005;SDS011;5042;42.626;23.382;2023-12-07T11:00:07;2.77;;;2.57;;
10005;SDS011;5042;42.626;23.382;2023-12-07T11:02:35;2.27;;;2.17;;
10005;SDS011;5042;42.626;23.382;2023-12-07T11:05:04;1.80;;;1.70;;
10005;SDS011;5042;42.626;23.382;2023-12-07T11:07:38;1.90;;;1.80;;
10005;SDS011;5042;42.626;23.382;2023-12-07T11:10:15;1.73;;;1.63;;
10005;SDS011;5042;42.626;23.382;2023-12-07T11:12:49;2.10;;;1.90;;
10005;SDS011;5042;42.626;23.382;2023-12-07T11:15:20;1.80;;;1.70;;
10005;SDS011;5042;42.626;23.382;2023-12-07T11:17:49;2.00;;;1.90;;
10005;SDS011;5042;42.626;23.382;2023-12-07T11:20:18;2.37;;;2.17;;
10005;SDS011;5042;42.626;23.382;2023-12-07T11:22:46;2.20;;;2.10;;
10005;SDS011;5042;42.626;23.382;2023-12-07T11:25:16;2.17;;;2.07;;
10005;SDS011;5042;42.626;23.382;2023-12-07T11:27:46;2.17;;;2.07;;
10005;SDS011;5042;42.626;23.382;2023-12-07T11:30:16;2.50;;;2.30;;
10005;SDS011;5042;42.626;23.382;2023-12-07T11:32:43;2.40;;;2.30;;
10005;SDS011;5042;42.626;23.382;2023-12-07T11:35:13;2.67;;;2.00;;
10005;SDS011;5042;42.626;23.382;2023-12-07T11:40:28;2.20;;;2.10;;
10005;SDS011;5042;42.626;23.382;2023-12-07T11:42:55;3.13;;;2.10;;
10005;SDS011;5042;42.626;23.382;2023-12-07T11:45:38;1.93;;;1.83;;
10005;SDS011;5042;42.626;23.382;2023-12-07T11:48:12;2.37;;;2.17;;
10005;SDS011;5042;42.626;23.382;2023-12-07T11:53:26;4.83;;;4.00;;
10005;SDS011;5042;42.626;23.382;2023-12-07T11:55:56;2.83;;;2.63;;
10005;SDS011;5042;42.626;23.382;2023-12-07T11:58:24;2.73;;;2.53;;
10005;SDS011;5042;42.626;23.382;2023-12-07T12:00:51;2.50;;;2.30;;
10005;SDS011;5042;42.626;23.382;2023-12-07T12:03:19;2.47;;;2.37;;
10005;SDS011;5042;42.626;23.382;2023-12-07T12:05:46;2.70;;;2.50;;
10005;SDS011;5042;42.626;23.382;2023-12-07T12:08:13;2.63;;;2.43;;
10005;SDS011;5042;42.626;23.382;2023-12-07T12:10:40;2.43;;;1.97;;
10005;SDS011;5042;42.626;23.382;2023-12-07T12:13:10;2.80;;;2.60;;
10005;SDS011;5042;42.626;23.382;2023-12-07T12:15:37;2.60;;;2.40;;
10005;SDS011;5042;42.626;23.382;2023-12-07T12:18:05;2.53;;;2.43;;
10005;SDS011;5042;42.626;23.382;2023-12-07T12:20:32;2.20;;;2.10;;
10005;SDS011;5042;42.626;23.382;2023-12-07T12:22:59;2.50;;;2.30;;
10005;SDS011;5042;42.626;23.382;2023-12-07T12:25:27;3.00;;;2.80;;
10005;SDS011;5042;42.626;23.382;2023-12-07T12:27:56;3.00;;;2.70;;
10005;SDS011;5042;42.626;23.382;2023-12-07T12:30:27;2.67;;;2.47;;
10005;SDS011;5042;42.626;23.382;2023-12-07T12:32:55;2.50;;;2.40;;
10005;SDS011;5042;42.626;23.382;2023-12-07T12:35:23;2.80;;;2.60;;
10005;SDS011;5042;42.626;23.382;2023-12-07T12:37:50;3.53;;;2.50;;
10005;SDS011;5042;42.626;23.382;2023-12-07T12:40:17;2.53;;;2.43;;
10005;SDS011;5042;42.626;23.382;2023-12-07T12:42:45;3.00;;;2.77;;
10005;SDS011;5042;42.626;23.382;2023-12-07T12:45:13;2.57;;;2.47;;
10005;SDS011;5042;42.626;23.382;2023-12-07T12:47:42;2.80;;;2.60;;
10005;SDS011;5042;42.626;23.382;2023-12-07T12:50:10;2.87;;;2.57;;
10005;SDS011;5042;42.626;23.382;2023-12-07T12:52:37;2.40;;;2.30;;
10005;SDS011;5042;42.626;23.382;2023-12-07T12:55:07;3.17;;;2.97;;
10005;SDS011;5042;42.626;23.382;2023-12-07T12:57:36;2.90;;;2.70;;
10005;SDS011;5042;42.626;23.382;2023-12-07T13:00:03;3.60;;;2.97;;
10005;SDS011;5042;42.626;23.382;2023-12-07T13:02:33;3.60;;;3.30;;
10005;SDS011;5042;42.626;23.382;2023-12-07T13:05:01;3.50;;;3.20;;
10005;SDS011;5042;42.626;23.382;2023-12-07T13:07:29;4.70;;;4.30;;
10005;SDS011;5042;42.626;23.382;2023-12-07T13:09:56;4.17;;;3.20;;
10005;SDS011;5042;42.626;23.382;2023-12-07T13:12:23;4.87;;;3.63;;
10005;SDS011;5042;42.626;23.382;2023-12-07T13:14:53;3.80;;;3.50;;
10005;SDS011;5042;42.626;23.382;2023-12-07T13:17:20;3.97;;;3.60;;
10005;SDS011;5042;42.626;23.382;2023-12-07T13:19:47;3.80;;;3.50;;
10005;SDS011;5042;42.626;23.382;2023-12-07T13:22:15;3.93;;;3.63;;
10005;SDS011;5042;42.626;23.382;2023-12-07T13:24:42;3.80;;;3.50;;
10005;SDS011;5042;42.626;23.382;2023-12-07T13:27:09;3.70;;;3.00;;
10005;SDS011;5042;42.626;23.382;2023-12-07T13:29:36;4.03;;;3.73;;
10005;SDS011;5042;42.626;23.382;2023-12-07T13:32:03;4.40;;;4.10;;
10005;SDS011;5042;42.626;23.382;2023-12-07T13:34:30;4.60;;;4.20;;
10005;SDS011;5042;42.626;23.382;2023-12-07T13:36:57;4.37;;;4.07;;
10005;SDS011;5042;42.626;23.382;2023-12-07T13:39:25;3.97;;;3.67;;
10005;SDS011;5042;42.626;23.382;2023-12-07T13:41:52;4.23;;;3.83;;
10005;SDS011;5042;42.626;23.382;2023-12-07T13:44:21;4.87;;;4.27;;
10005;SDS011;5042;42.626;23.382;2023-12-07T13:46:49;4.50;;;4.10;;
10005;SDS011;5042;42.626;23.382;2023-12-07T13:49:19;4.20;;;3.90;;
10005;SDS011;5042;42.626;23.382;2023-12-07T13:51:45;4.70;;;4.30;;
10005;SDS011;5042;42.626;23.382;2023-12-07T13:54:12;4.70;;;4.30;;
10005;SDS011;5042;42.626;23.382;2023-12-07T13:56:41;5.90;;;4.50;;
10005;SDS011;5042;42.626;23.382;2023-12-07T13:59:08;5.27;;;4.60;;
10005;SDS011;5042;42.626;23.382;2023-12-07T14:01:37;4.60;;;4.20;;
10005;SDS011;5042;42.626;23.382;2023-12-07T14:04:04;5.33;;;4.70;;
10005;SDS011;5042;42.626;23.382;2023-12-07T14:06:32;4.67;;;4.20;;
10005;SDS011;5042;42.626;23.382;2023-12-07T14:09:00;4.63;;;4.23;;
10005;SDS011;5042;42.626;23.382;2023-12-07T14:11:28;4.43;;;4.03;;
10005;SDS011;5042;42.626;23.382;2023-12-07T14:13:56;5.20;;;4.70;;
10005;SDS011;5042;42.626;23.382;2023-12-07T14:16:23;5.37;;;4.93;;
10005;SDS011;5042;42.626;23.382;2023-12-07T14:18:50;4.87;;;4.47;;
10005;SDS011;5042;42.626;23.382;2023-12-07T14:21:19;5.27;;;4.83;;
10005;SDS011;5042;42.626;23.382;2023-12-07T14:23:47;5.00;;;4.60;;
10005;SDS011;5042;42.626;23.382;2023-12-07T14:26:14;5.73;;;5.07;;
10005;SDS011;5042;42.626;23.382;2023-12-07T14:28:41;5.47;;;4.97;;
10005;SDS011;5042;42.626;23.382;2023-12-07T14:31:09;5.30;;;4.80;;
10005;SDS011;5042;42.626;23.382;2023-12-07T14:33:41;5.73;;;5.23;;
10005;SDS011;5042;42.626;23.382;2023-12-07T14:36:10;6.50;;;5.90;;
10005;SDS011;5042;42.626;23.382;2023-12-07T14:38:37;6.00;;;5.50;;
10005;SDS011;5042;42.626;23.382;2023-12-07T14:41:05;5.93;;;5.37;;
10005;SDS011;5042;42.626;23.382;2023-12-07T14:43:33;16.63;;;6.57;;